createdAt,value
2023-08-12T00:00:51.080Z,11.43
2023-08-12T00:03:18.911Z,5.57
2023-08-12T00:05:47.612Z,3.65
2023-08-12T00:08:15.286Z,3.13
2023-08-12T00:10:44.632Z,3.30
2023-08-12T00:13:14.591Z,3.30
2023-08-12T00:15:42.743Z,3.03
2023-08-12T00:18:10.607Z,2.90
2023-08-12T00:20:39.128Z,3.28
2023-08-12T00:23:07.002Z,2.88
2023-08-12T00:25:34.578Z,3.22
2023-08-12T00:28:03.824Z,3.35
2023-08-12T00:30:31.478Z,2.80
2023-08-12T00:32:59.118Z,3.15
2023-08-12T00:35:26.847Z,2.85
2023-08-12T00:37:54.533Z,2.95
2023-08-12T00:40:22.218Z,3.05
2023-08-12T00:42:49.798Z,3.38
2023-08-12T00:45:18.853Z,3.10
2023-08-12T00:47:46.458Z,3.30
2023-08-12T00:50:16.457Z,3.38
2023-08-12T00:52:44.340Z,3.30
2023-08-12T00:55:12.399Z,3.08
2023-08-12T00:57:40.082Z,3.00
2023-08-12T01:00:09.171Z,3.30
2023-08-12T01:02:38.372Z,3.53
2023-08-12T01:05:07.048Z,3.13
2023-08-12T01:07:35.290Z,3.30
2023-08-12T01:10:03.002Z,3.08
2023-08-12T01:12:34.359Z,2.95
2023-08-12T01:15:07.728Z,3.28
2023-08-12T01:17:36.241Z,2.83
2023-08-12T01:20:09.314Z,3.22
2023-08-12T01:22:40.463Z,3.20
2023-08-12T01:25:10.303Z,3.58
2023-08-12T01:27:38.346Z,3.47
2023-08-12T01:30:07.745Z,3.20
2023-08-12T01:32:40.789Z,3.47
2023-08-12T01:35:13.503Z,3.90
2023-08-12T01:37:41.447Z,3.83
2023-08-12T01:40:11.687Z,3.50
2023-08-12T01:42:41.269Z,3.08
2023-08-12T01:45:09.582Z,3.45
2023-08-12T01:47:37.201Z,2.88
2023-08-12T01:50:05.484Z,2.97
2023-08-12T01:52:33.190Z,3.45
2023-08-12T01:55:00.988Z,3.28
2023-08-12T01:57:30.049Z,3.95
2023-08-12T01:59:57.781Z,3.67
2023-08-12T02:02:25.484Z,3.50
2023-08-12T02:04:53.118Z,3.90
2023-08-12T02:07:20.788Z,3.50
2023-08-12T02:09:48.448Z,4.00
2023-08-12T02:12:16.058Z,3.70
2023-08-12T02:14:45.197Z,4.22
2023-08-12T02:17:13.042Z,3.90
2023-08-12T02:19:40.890Z,4.30
2023-08-12T02:22:08.548Z,4.22
2023-08-12T02:24:36.220Z,4.63
2023-08-12T02:27:04.005Z,4.80
2023-08-12T02:29:31.587Z,5.27
2023-08-12T02:32:00.667Z,5.40
2023-08-12T02:34:28.339Z,5.10
2023-08-12T02:36:55.927Z,6.73
2023-08-12T02:39:23.557Z,7.50
2023-08-12T02:41:51.158Z,9.30
2023-08-12T02:44:19.303Z,11.37
2023-08-12T02:46:47.019Z,13.67
2023-08-12T02:49:16.147Z,14.80
2023-08-12T02:51:43.847Z,12.07
2023-08-12T02:54:11.467Z,11.87
2023-08-12T02:56:39.132Z,10.43
2023-08-12T02:59:06.818Z,9.70
2023-08-12T03:01:34.772Z,8.57
2023-08-12T03:04:02.437Z,7.70
2023-08-12T03:06:31.423Z,7.27
2023-08-12T03:08:59.082Z,6.27
2023-08-12T03:11:26.866Z,6.63
2023-08-12T03:13:54.493Z,6.03
2023-08-12T03:16:22.143Z,6.37
2023-08-12T03:18:49.763Z,5.40
2023-08-12T03:21:17.416Z,4.83
2023-08-12T03:23:46.626Z,4.70
2023-08-12T03:26:15.323Z,5.00
2023-08-12T03:28:42.979Z,4.60
2023-08-12T03:31:10.640Z,4.47
2023-08-12T03:33:38.287Z,4.33
2023-08-12T03:36:06.413Z,4.37
2023-08-12T03:38:34.053Z,4.30
2023-08-12T03:41:03.305Z,4.37
2023-08-12T03:43:30.996Z,4.47
2023-08-12T03:45:58.704Z,3.90
2023-08-12T03:48:26.402Z,4.50
2023-08-12T03:50:54.137Z,3.93
2023-08-12T03:53:21.834Z,4.20
2023-08-12T03:55:49.482Z,4.70
2023-08-12T03:58:18.993Z,4.60
2023-08-12T04:00:46.715Z,4.70
2023-08-12T04:03:15.269Z,4.40
2023-08-12T04:05:49.694Z,4.93
2023-08-12T04:08:17.379Z,4.23
2023-08-12T04:10:47.296Z,4.00
2023-08-12T04:13:15.190Z,4.43
2023-08-12T04:15:44.474Z,3.87
2023-08-12T04:18:12.119Z,4.50
2023-08-12T04:20:40.498Z,4.10
2023-08-12T04:23:08.235Z,4.00
2023-08-12T04:25:35.840Z,4.43
2023-08-12T04:28:03.560Z,4.43
2023-08-12T04:30:31.303Z,3.63
2023-08-12T04:33:00.331Z,3.93
2023-08-12T04:35:28.105Z,4.22
2023-08-12T04:37:55.766Z,4.00
2023-08-12T04:40:23.610Z,4.10
2023-08-12T04:42:51.353Z,3.85
2023-08-12T04:45:19.163Z,3.60
2023-08-12T04:47:46.833Z,3.60
2023-08-12T04:50:16.022Z,3.72
2023-08-12T04:52:43.699Z,3.60
2023-08-12T04:55:12.651Z,3.50
2023-08-12T04:57:40.423Z,3.53
2023-08-12T05:00:09.356Z,3.10
2023-08-12T05:02:37.192Z,3.13
2023-08-12T05:05:06.214Z,3.17
2023-08-12T05:07:37.022Z,3.35
2023-08-12T05:10:07.091Z,3.03
2023-08-12T05:12:34.768Z,3.33
2023-08-12T05:15:02.699Z,3.30
2023-08-12T05:17:30.439Z,3.00
2023-08-12T05:19:58.235Z,3.30
2023-08-12T05:22:26.056Z,3.20
2023-08-12T05:24:55.107Z,3.43
2023-08-12T05:27:22.850Z,3.23
2023-08-12T05:29:50.436Z,3.47
2023-08-12T05:32:18.051Z,3.30
2023-08-12T05:34:45.655Z,3.07
2023-08-12T05:37:13.393Z,3.00
2023-08-12T05:39:41.046Z,3.27
2023-08-12T05:42:10.414Z,3.50
2023-08-12T05:44:38.492Z,3.40
2023-08-12T05:47:06.458Z,4.00
2023-08-12T05:49:34.088Z,4.00
2023-08-12T05:52:01.755Z,4.37
2023-08-12T05:54:29.390Z,7.27
2023-08-12T05:57:00.117Z,9.67
2023-08-12T05:59:29.252Z,11.20
2023-08-12T06:01:56.931Z,11.83
2023-08-12T06:04:24.656Z,17.07
2023-08-12T06:06:52.459Z,19.80
2023-08-12T06:09:20.206Z,17.87
2023-08-12T06:11:47.867Z,12.40
2023-08-12T06:14:15.509Z,15.03
2023-08-12T06:16:44.514Z,15.33
2023-08-12T06:19:12.419Z,17.93
2023-08-12T06:21:40.224Z,21.17
2023-08-12T06:24:08.499Z,15.83
2023-08-12T06:26:36.205Z,16.10
2023-08-12T06:29:06.070Z,17.20
2023-08-12T06:31:34.177Z,17.70
2023-08-12T06:34:03.170Z,16.63
2023-08-12T06:36:30.798Z,17.13
2023-08-12T06:39:00.631Z,16.90
2023-08-12T06:41:28.747Z,18.30
2023-08-12T06:43:56.354Z,14.23
2023-08-12T06:46:24.104Z,18.33
2023-08-12T06:48:51.748Z,18.47
2023-08-12T06:51:20.863Z,19.07
2023-08-12T06:53:48.471Z,18.47
2023-08-12T06:56:16.096Z,18.03
2023-08-12T06:58:43.761Z,19.00
2023-08-12T07:01:13.613Z,17.07
2023-08-12T07:03:43.049Z,15.70
2023-08-12T07:06:10.878Z,14.50
2023-08-12T07:08:40.033Z,13.87
2023-08-12T07:11:07.811Z,11.10
2023-08-12T07:13:35.723Z,14.90
2023-08-12T07:16:03.548Z,10.83
2023-08-12T07:18:32.066Z,13.90
2023-08-12T07:21:00.910Z,10.97
2023-08-12T07:23:28.589Z,10.43
2023-08-12T07:25:57.722Z,12.77
2023-08-12T07:28:25.397Z,14.93
2023-08-12T07:30:53.526Z,13.60
2023-08-12T07:33:21.900Z,13.97
2023-08-12T07:35:49.540Z,15.00
2023-08-12T07:38:17.121Z,13.67
2023-08-12T07:40:44.780Z,12.50
2023-08-12T07:43:13.701Z,13.20
2023-08-12T07:45:41.282Z,11.37
2023-08-12T07:48:09.018Z,10.67
2023-08-12T07:50:36.819Z,11.80
2023-08-12T07:53:04.668Z,9.20
2023-08-12T07:55:32.664Z,12.20
2023-08-12T07:58:00.302Z,10.88
2023-08-12T08:00:29.325Z,11.00
2023-08-12T08:02:56.953Z,12.23
2023-08-12T08:05:24.680Z,11.93
2023-08-12T08:07:52.345Z,10.82
2023-08-12T08:10:19.979Z,9.02
2023-08-12T08:12:47.576Z,10.20
2023-08-12T08:15:15.201Z,9.02
2023-08-12T08:17:44.280Z,10.60
2023-08-12T08:20:12.448Z,9.55
2023-08-12T08:22:40.691Z,8.85
2023-08-12T08:25:09.264Z,7.85
2023-08-12T08:27:36.847Z,7.50
2023-08-12T08:30:05.031Z,6.30
2023-08-12T08:32:32.673Z,7.47
2023-08-12T08:35:01.944Z,6.07
2023-08-12T08:37:29.599Z,5.70
2023-08-12T08:39:57.141Z,5.53
2023-08-12T08:42:26.438Z,6.10
2023-08-12T08:44:55.027Z,4.55
2023-08-12T08:47:28.056Z,4.80
2023-08-12T08:49:57.317Z,5.47
2023-08-12T08:52:26.818Z,5.18
2023-08-12T08:54:55.138Z,4.80
2023-08-12T08:57:24.822Z,4.10
2023-08-12T09:02:41.700Z,4.68
2023-08-12T09:05:10.198Z,4.63
2023-08-12T09:07:39.297Z,5.60
2023-08-12T09:10:08.332Z,5.97
2023-08-12T09:12:37.562Z,6.35
2023-08-12T09:15:07.324Z,6.10
2023-08-12T09:17:35.421Z,5.78
2023-08-12T09:20:04.259Z,5.80
2023-08-12T09:22:31.928Z,6.22
2023-08-12T09:25:02.139Z,5.63
2023-08-12T09:27:30.246Z,6.55
2023-08-12T09:29:58.630Z,5.60
2023-08-12T09:32:26.322Z,5.90
2023-08-12T09:34:55.306Z,5.93
2023-08-12T09:37:24.561Z,4.85
2023-08-12T09:39:53.113Z,5.28
2023-08-12T09:42:22.221Z,4.82
2023-08-12T09:44:49.860Z,4.55
2023-08-12T09:47:17.443Z,5.15
2023-08-12T09:49:45.210Z,4.07
2023-08-12T09:52:14.138Z,5.35
2023-08-12T09:54:44.062Z,4.70
2023-08-12T09:57:13.509Z,5.20
2023-08-12T09:59:42.569Z,5.20
2023-08-12T10:02:15.237Z,5.90
2023-08-12T10:04:44.290Z,6.78
2023-08-12T10:07:13.892Z,5.40
2023-08-12T10:09:41.909Z,6.00
2023-08-12T10:12:10.386Z,7.72
2023-08-12T10:14:39.352Z,7.47
2023-08-12T10:17:10.422Z,7.35
2023-08-12T10:19:38.387Z,8.98
2023-08-12T10:22:06.180Z,8.30
2023-08-12T10:24:36.211Z,8.75
2023-08-12T10:27:03.956Z,8.52
2023-08-12T10:29:32.561Z,9.18
2023-08-12T10:32:01.589Z,6.85
2023-08-12T10:34:30.578Z,8.60
2023-08-12T10:37:03.435Z,8.47
2023-08-12T10:39:33.748Z,8.07
2023-08-12T10:42:01.666Z,8.10
2023-08-12T10:44:30.740Z,8.68
2023-08-12T10:47:00.443Z,6.70
2023-08-12T10:49:28.139Z,7.95
2023-08-12T10:51:57.328Z,7.50
2023-08-12T10:54:28.231Z,8.52
2023-08-12T10:57:14.470Z,8.70
2023-08-12T10:59:56.341Z,6.57
2023-08-12T11:02:28.526Z,7.72
2023-08-12T11:04:57.605Z,6.45
2023-08-12T11:07:34.893Z,5.50
2023-08-12T11:10:06.847Z,4.78
2023-08-12T11:12:35.945Z,3.70
2023-08-12T11:15:05.180Z,3.35
2023-08-12T11:17:37.246Z,4.00
2023-08-12T11:20:07.684Z,3.70
2023-08-12T11:22:39.366Z,3.30
2023-08-12T11:25:09.799Z,3.75
2023-08-12T11:27:42.763Z,3.33
2023-08-12T11:30:12.354Z,3.60
2023-08-12T11:32:40.869Z,3.80
2023-08-12T11:35:10.340Z,3.00
2023-08-12T11:37:40.132Z,2.92
2023-08-12T11:40:10.470Z,3.05
2023-08-12T11:42:38.638Z,2.90
2023-08-12T11:45:08.003Z,2.80
2023-08-12T11:47:35.926Z,2.67
2023-08-12T11:50:04.780Z,3.20
2023-08-12T11:52:32.741Z,2.90
2023-08-12T11:55:01.834Z,2.80
2023-08-12T11:57:29.718Z,3.10
2023-08-12T12:00:00.794Z,3.03
2023-08-12T12:02:28.605Z,3.00
2023-08-12T12:04:56.459Z,3.22
2023-08-12T12:07:25.562Z,2.95
2023-08-12T12:09:54.330Z,2.75
2023-08-12T12:12:26.616Z,3.03
2023-08-12T12:14:55.550Z,2.97
2023-08-12T12:17:23.883Z,2.63
2023-08-12T12:19:57.606Z,2.60
2023-08-12T12:22:28.836Z,2.50
2023-08-12T12:24:56.556Z,2.40
2023-08-12T12:27:26.406Z,2.72
2023-08-12T12:29:54.049Z,3.10
2023-08-12T12:32:22.245Z,3.03
2023-08-12T12:34:50.069Z,3.00
2023-08-12T12:37:17.750Z,2.85
2023-08-12T12:39:45.462Z,3.13
2023-08-12T12:42:13.735Z,3.13
2023-08-12T12:44:42.927Z,3.55
2023-08-12T12:47:12.136Z,3.25
2023-08-12T12:49:39.864Z,3.53
2023-08-12T12:52:07.488Z,3.50
2023-08-12T12:54:35.171Z,3.08
2023-08-12T12:57:03.052Z,2.92
2023-08-12T12:59:30.688Z,3.15
2023-08-12T13:01:59.680Z,3.13
2023-08-12T13:04:27.376Z,3.40
2023-08-12T13:06:55.023Z,3.25
2023-08-12T13:09:22.707Z,3.60
2023-08-12T13:11:50.340Z,3.03
2023-08-12T13:14:20.789Z,3.20
2023-08-12T13:16:48.434Z,3.25
2023-08-12T13:19:17.374Z,3.60
2023-08-12T13:21:44.917Z,3.65
2023-08-12T13:24:13.167Z,3.35
2023-08-12T13:26:40.904Z,3.10
2023-08-12T13:29:08.745Z,3.20
2023-08-12T13:31:36.457Z,3.55
2023-08-12T13:34:04.462Z,2.67
2023-08-12T13:36:33.457Z,3.33
2023-08-12T13:39:01.506Z,3.13
2023-08-12T13:41:29.249Z,3.30
2023-08-12T13:43:56.911Z,3.00
2023-08-12T13:46:24.646Z,2.90
2023-08-12T13:48:52.294Z,3.58
2023-08-12T13:51:19.918Z,3.20
2023-08-12T13:53:48.963Z,3.20
2023-08-12T13:56:17.292Z,3.22
2023-08-12T13:58:44.934Z,3.58
2023-08-12T14:01:12.750Z,3.28
2023-08-12T14:03:40.388Z,3.20
2023-08-12T14:06:11.203Z,3.10
2023-08-12T14:08:38.870Z,3.40
2023-08-12T14:11:07.855Z,2.72
2023-08-12T14:13:35.488Z,3.30
2023-08-12T14:16:03.052Z,3.38
2023-08-12T14:18:30.723Z,3.30
2023-08-12T14:20:58.299Z,3.63
2023-08-12T14:23:25.956Z,2.85
2023-08-12T14:25:53.551Z,2.80
2023-08-12T14:28:22.554Z,2.33
2023-08-12T14:30:50.222Z,2.78
2023-08-12T14:33:17.872Z,2.47
2023-08-12T14:35:45.553Z,2.90
2023-08-12T14:38:13.737Z,2.40
2023-08-12T14:40:41.376Z,2.28
2023-08-12T14:43:09.017Z,2.40
2023-08-12T14:45:37.951Z,2.15
2023-08-12T14:48:05.956Z,2.40
2023-08-12T14:50:33.602Z,2.30
2023-08-12T14:53:01.229Z,2.47
2023-08-12T14:55:28.868Z,2.40
2023-08-12T14:57:56.509Z,2.38
2023-08-12T15:00:24.213Z,2.50
2023-08-12T15:02:53.267Z,2.40
2023-08-12T15:05:20.934Z,2.42
2023-08-12T15:07:48.628Z,2.13
2023-08-12T15:10:16.250Z,2.40
2023-08-12T15:12:43.984Z,2.10
2023-08-12T15:15:11.910Z,2.30
2023-08-12T15:17:39.659Z,2.03
2023-08-12T15:20:11.476Z,2.20
2023-08-12T15:22:39.326Z,2.00
2023-08-12T15:25:07.731Z,2.47
2023-08-12T15:27:35.459Z,1.98
2023-08-12T15:30:03.322Z,2.28
2023-08-12T15:32:31.723Z,2.05
2023-08-12T15:34:59.480Z,2.20
2023-08-12T15:37:28.482Z,2.30
2023-08-12T15:39:56.070Z,2.35
2023-08-12T15:42:23.682Z,2.20
2023-08-12T15:44:51.308Z,2.20
2023-08-12T15:47:18.900Z,2.13
2023-08-12T15:49:46.513Z,2.30
2023-08-12T15:52:14.099Z,2.40
2023-08-12T15:54:43.165Z,2.42
2023-08-12T15:57:11.470Z,2.55
2023-08-12T15:59:39.329Z,2.63
2023-08-12T16:02:08.720Z,1.98
2023-08-12T16:04:37.866Z,2.28
2023-08-12T16:07:05.713Z,2.28
2023-08-12T16:09:33.381Z,2.67
2023-08-12T16:12:02.491Z,2.28
2023-08-12T16:14:30.100Z,2.30
2023-08-12T16:16:57.759Z,2.22
2023-08-12T16:19:25.341Z,2.40
2023-08-12T16:21:52.971Z,2.40
2023-08-12T16:24:20.571Z,2.20
2023-08-12T16:26:48.301Z,2.10
2023-08-12T16:29:17.332Z,2.10
2023-08-12T16:31:45.017Z,2.28
2023-08-12T16:34:12.669Z,2.40
2023-08-12T16:36:40.278Z,2.53
2023-08-12T16:39:09.999Z,2.50
2023-08-12T16:41:37.935Z,2.40
2023-08-12T16:44:06.061Z,2.10
2023-08-12T16:46:35.008Z,2.05
2023-08-12T16:49:02.650Z,2.30
2023-08-12T16:51:30.691Z,2.40
2023-08-12T16:53:58.433Z,2.22
2023-08-12T16:56:26.175Z,1.95
2023-08-12T16:58:53.817Z,2.38
2023-08-12T17:01:22.303Z,2.00
2023-08-12T17:03:51.550Z,1.90
2023-08-12T17:06:19.229Z,2.15
2023-08-12T17:08:46.865Z,2.35
2023-08-12T17:11:14.463Z,2.10
2023-08-12T17:13:42.936Z,2.00
2023-08-12T17:16:10.637Z,2.50
2023-08-12T17:18:38.266Z,2.08
2023-08-12T17:21:07.271Z,2.00
2023-08-12T17:23:35.198Z,2.10
2023-08-12T17:26:02.847Z,2.15
2023-08-12T17:28:30.478Z,2.15
2023-08-12T17:30:58.161Z,2.10
2023-08-12T17:33:25.919Z,2.40
2023-08-12T17:35:53.539Z,2.25
2023-08-12T17:38:22.544Z,2.13
2023-08-12T17:40:50.917Z,2.22
2023-08-12T17:43:18.529Z,2.00
2023-08-12T17:45:46.205Z,2.25
2023-08-12T17:48:13.932Z,2.28
2023-08-12T17:50:41.806Z,2.15
2023-08-12T17:53:09.579Z,2.13
2023-08-12T17:55:38.629Z,2.20
2023-08-12T17:58:07.230Z,2.28
2023-08-12T18:00:34.975Z,1.98
2023-08-12T18:03:02.688Z,2.20
2023-08-12T18:05:30.401Z,2.03
2023-08-12T18:07:58.055Z,2.10
2023-08-12T18:10:27.205Z,2.08
2023-08-12T18:12:56.222Z,2.38
2023-08-12T18:15:23.986Z,2.20
2023-08-12T18:17:52.666Z,2.17
2023-08-12T18:20:20.542Z,2.38
2023-08-12T18:22:48.224Z,2.08
2023-08-12T18:25:15.824Z,3.92
2023-08-12T18:27:43.452Z,2.13
2023-08-12T18:30:13.246Z,2.17
2023-08-12T18:32:41.129Z,2.13
2023-08-12T18:35:08.945Z,2.33
2023-08-12T18:37:36.534Z,2.22
2023-08-12T18:40:04.288Z,2.25
2023-08-12T18:42:31.950Z,2.10
2023-08-12T18:44:59.635Z,2.60
2023-08-12T18:47:28.568Z,2.17
2023-08-12T18:49:56.208Z,2.10
2023-08-12T18:52:23.860Z,2.28
2023-08-12T18:54:51.544Z,2.25
2023-08-12T18:57:19.185Z,2.22
2023-08-12T18:59:46.839Z,2.08
2023-08-12T19:02:16.635Z,2.20
2023-08-12T19:04:45.922Z,2.53
2023-08-12T19:07:13.592Z,2.30
2023-08-12T19:09:41.185Z,2.35
2023-08-12T19:12:10.705Z,2.15
2023-08-12T19:14:38.354Z,2.20
2023-08-12T19:17:06.176Z,2.00
2023-08-12T19:19:33.766Z,1.80
2023-08-12T19:22:02.800Z,2.03
2023-08-12T19:24:30.676Z,1.90
2023-08-12T19:26:58.612Z,2.10
2023-08-12T19:29:26.239Z,2.05
2023-08-12T19:31:53.883Z,2.10
2023-08-12T19:34:21.541Z,2.05
2023-08-12T19:36:49.192Z,2.10
2023-08-12T19:39:19.104Z,1.90
2023-08-12T19:41:46.773Z,1.77
2023-08-12T19:44:14.403Z,2.00
2023-08-12T19:46:42.113Z,2.10
2023-08-12T19:49:09.791Z,1.85
2023-08-12T19:51:37.456Z,2.30
2023-08-12T19:54:05.711Z,1.83
2023-08-12T19:56:34.730Z,1.87
2023-08-12T19:59:02.325Z,2.00
2023-08-12T20:01:30.039Z,1.92
2023-08-12T20:03:57.746Z,1.80
2023-08-12T20:06:25.407Z,2.30
2023-08-12T20:08:53.344Z,2.10
2023-08-12T20:11:20.981Z,2.15
2023-08-12T20:13:49.902Z,2.40
2023-08-12T20:16:17.544Z,2.58
2023-08-12T20:18:45.176Z,2.50
2023-08-12T20:21:12.780Z,2.22
2023-08-12T20:23:40.349Z,3.10
2023-08-12T20:26:10.172Z,33.63
2023-08-12T20:28:37.786Z,6.32
2023-08-12T20:31:06.766Z,2.72
2023-08-12T20:33:34.447Z,2.22
2023-08-12T20:36:02.197Z,2.28
2023-08-12T20:38:29.863Z,1.80
2023-08-12T20:40:57.422Z,1.98
2023-08-12T20:43:25.791Z,1.92
2023-08-12T20:45:54.239Z,2.20
2023-08-12T20:48:23.235Z,2.03
2023-08-12T20:50:50.901Z,1.90
2023-08-12T20:53:18.469Z,2.22
2023-08-12T20:55:46.298Z,2.53
2023-08-12T20:58:13.885Z,2.35
2023-08-12T21:00:41.473Z,2.33
2023-08-12T21:03:09.206Z,1.90
2023-08-12T21:05:39.127Z,1.65
2023-08-12T21:08:06.990Z,1.70
2023-08-12T21:10:34.726Z,2.07
2023-08-12T21:13:02.351Z,1.80
2023-08-12T21:15:30.057Z,2.40
2023-08-12T21:17:57.752Z,2.00
2023-08-12T21:20:25.538Z,1.90
2023-08-12T21:22:54.534Z,2.10
2023-08-12T21:25:22.128Z,2.10
2023-08-12T21:27:49.814Z,1.92
2023-08-12T21:30:17.995Z,1.90
2023-08-12T21:32:45.745Z,2.00
2023-08-12T21:35:13.375Z,1.92
2023-08-12T21:37:41.116Z,2.00
2023-08-12T21:40:12.304Z,1.97
2023-08-12T21:42:40.009Z,1.67
2023-08-12T21:45:08.811Z,1.60
2023-08-12T21:47:36.415Z,1.90
2023-08-12T21:50:04.185Z,1.93
2023-08-12T21:52:31.785Z,2.00
2023-08-12T21:54:59.627Z,2.00
2023-08-12T21:57:28.569Z,2.00
2023-08-12T21:59:56.297Z,2.50
2023-08-12T22:02:25.168Z,2.37
2023-08-12T22:04:52.845Z,2.33
2023-08-12T22:07:20.511Z,2.30
2023-08-12T22:09:48.192Z,2.22
2023-08-12T22:12:16.206Z,1.93
2023-08-12T22:14:45.314Z,1.92
2023-08-12T22:17:12.964Z,2.03
2023-08-12T22:19:40.590Z,1.80
2023-08-12T22:22:18.454Z,2.30
2023-08-12T22:24:47.615Z,2.08
2023-08-12T22:27:15.387Z,2.20
2023-08-12T22:29:42.994Z,2.30
2023-08-12T22:32:12.467Z,2.30
2023-08-12T22:34:40.379Z,1.97
2023-08-12T22:37:08.065Z,2.00
2023-08-12T22:39:35.666Z,2.08
2023-08-12T22:42:03.265Z,1.95
2023-08-12T22:44:30.945Z,1.70
2023-08-12T22:46:58.634Z,1.98
2023-08-12T22:49:27.676Z,1.97
2023-08-12T22:51:55.369Z,2.33
2023-08-12T22:54:23.030Z,2.00
2023-08-12T22:56:50.658Z,2.43
2023-08-12T22:59:19.262Z,2.28
2023-08-12T23:01:47.006Z,2.00
2023-08-12T23:04:14.571Z,1.90
2023-08-12T23:06:43.536Z,1.87
2023-08-12T23:09:11.176Z,5.17
2023-08-12T23:11:38.792Z,3.17
2023-08-12T23:14:06.442Z,2.53
2023-08-12T23:16:34.025Z,2.10
2023-08-12T23:19:01.696Z,2.00
2023-08-12T23:21:29.346Z,1.83
2023-08-12T23:23:58.275Z,1.80
2023-08-12T23:26:25.885Z,1.67
2023-08-12T23:28:53.513Z,1.80
2023-08-12T23:31:21.195Z,1.87
2023-08-12T23:33:48.847Z,1.90
2023-08-12T23:36:16.456Z,1.77
2023-08-12T23:38:44.086Z,1.70
2023-08-12T23:41:13.056Z,2.03
2023-08-12T23:43:40.684Z,2.20
2023-08-12T23:46:08.266Z,2.03
2023-08-12T23:48:35.852Z,2.10
2023-08-12T23:51:03.483Z,2.07
2023-08-12T23:53:31.069Z,1.90
2023-08-12T23:55:58.731Z,1.90
2023-08-12T23:58:27.710Z,1.60
